Time;durP1;ratioP1;P1;durP2;ratioP2;P2;SDS_P1;SDS_P2;PMS_P1;PMS_P2;Temp;Humidity;BMP_temperature;BMP_pressure;BME280_temperature;BME280_humidity;BME280_pressure;Samples;Min_cycle;Max_cycle;Signal;HPM_P1;HPM_P2
2022/11/29 09:38:13;;;;;;;26.23;18.93;;;;;;;6.81;100.00;98959.75;5088947;28;20558;-82
2022/11/29 09:40:49;;;;;;;27.33;20.30;;;;;;;7.29;100.00;98953.16;5087948;28;39846;-79
2022/11/29 09:43:26;;;;;;;25.57;20.23;;;;;;;7.80;100.00;98956.78;5088099;28;40853;-82
2022/11/29 09:46:02;;;;;;;23.93;18.87;;;;;;;8.26;100.00;98972.03;5085092;28;43471;-80
2022/11/29 09:48:59;;;;;;;23.43;17.77;;;;;;;8.62;100.00;98971.09;5088523;28;41463;-80
2022/11/29 09:51:32;;;;;;;22.03;17.20;;;;;;;8.93;100.00;98973.78;5070985;28;39949;-83
2022/11/29 09:54:19;;;;;;;20.73;17.33;;;;;;;9.10;100.00;98961.44;5071083;28;42062;-83
2022/11/29 09:56:50;;;;;;;20.73;16.80;;;;;;;9.45;100.00;98968.28;5087370;28;41768;-79
2022/11/29 09:59:22;;;;;;;23.03;17.87;;;;;;;9.67;100.00;98970.56;5071169;28;41069;-83
2022/11/29 10:01:56;;;;;;;20.53;17.67;;;;;;;9.85;99.01;98958.06;5120199;27;40931;-81
2022/11/29 10:04:28;;;;;;;18.17;16.20;;;;;;;10.01;97.47;98964.19;5084835;28;42710;-80
2022/11/29 10:07:01;;;;;;;19.37;17.13;;;;;;;10.13;95.76;98974.06;5087248;28;43429;-83
2022/11/29 10:09:36;;;;;;;21.73;17.57;;;;;;;10.23;94.60;98982.34;5085869;28;41956;-81
2022/11/29 10:12:13;;;;;;;23.83;19.33;;;;;;;10.21;92.67;98987.72;5070271;28;39030;-81
2022/11/29 10:14:47;;;;;;;20.43;18.13;;;;;;;10.08;92.01;98965.53;5104662;28;40704;-80
2022/11/29 10:17:26;;;;;;;19.13;16.67;;;;;;;10.13;92.01;98971.41;5069999;28;42883;-82
2022/11/29 10:19:59;;;;;;;20.87;17.30;;;;;;;10.08;91.37;98963.72;5084628;28;43151;-79
2022/11/29 10:22:36;;;;;;;23.70;19.00;;;;;;;10.18;88.41;98990.53;5087131;28;39438;-82
2022/11/29 10:25:09;;;;;;;21.83;16.83;;;;;;;10.25;89.19;98981.31;5070836;28;40688;-82
2022/11/29 10:27:39;;;;;;;20.00;16.60;;;;;;;10.29;89.31;98964.28;5087046;28;44433;-80
2022/11/29 10:30:13;;;;;;;19.40;16.43;;;;;;;10.38;88.73;98954.97;5086981;28;41009;-80
2022/11/29 10:32:42;;;;;;;22.87;19.00;;;;;;;10.43;86.21;98966.97;5086940;28;40026;-85
2022/11/29 10:35:13;;;;;;;22.40;18.87;;;;;;;10.61;85.30;98983.53;5088373;28;41849;-83
2022/11/29 10:37:41;;;;;;;21.27;17.77;;;;;;;10.57;85.08;98962.63;5069328;28;43006;-84
2022/11/29 10:40:17;;;;;;;20.90;17.70;;;;;;;10.81;85.26;98982.31;5070219;28;41245;-83
2022/11/29 10:42:48;;;;;;;18.20;16.23;;;;;;;10.88;85.39;98982.81;5086656;28;40222;-83
2022/11/29 10:45:27;;;;;;;18.10;15.23;;;;;;;10.87;85.33;98973.16;5083906;28;41611;-78
2022/11/29 10:47:58;;;;;;;22.83;15.47;;;;;;;10.88;85.22;98975.69;5065069;28;41682;-83
2022/11/29 10:50:28;;;;;;;18.40;16.43;;;;;;;10.86;85.16;98980.25;5074922;28;42215;-82
2022/11/29 10:53:00;;;;;;;22.20;18.43;;;;;;;10.81;82.76;98984.97;5073245;28;38896;-81
2022/11/29 10:55:34;;;;;;;20.07;17.53;;;;;;;10.67;83.64;98961.97;5070307;28;42480;-82
2022/11/29 10:58:11;;;;;;;19.13;16.77;;;;;;;10.65;83.35;98970.94;5070034;28;42656;-83
2022/11/29 11:00:53;;;;;;;20.37;16.63;;;;;;;10.59;83.91;98973.97;5074572;28;42897;-82
2022/11/29 11:03:32;;;;;;;19.97;17.10;;;;;;;10.59;83.48;98977.47;5056647;28;40364;-82
2022/11/29 11:06:06;;;;;;;17.87;15.97;;;;;;;10.60;84.02;98975.69;5072866;28;41681;-81
2022/11/29 11:08:35;;;;;;;21.67;17.60;;;;;;;10.57;83.29;98967.91;5073175;28;41819;-85
2022/11/29 11:11:07;;;;;;;18.03;15.90;;;;;;;10.53;83.08;98977.84;5072875;28;42235;-81
2022/11/29 11:13:36;;;;;;;19.70;16.97;;;;;;;10.54;83.29;98973.41;5071318;28;40894;-80
2022/11/29 11:16:16;;;;;;;23.20;19.00;;;;;;;10.54;82.86;98973.41;5073210;28;42666;-82
2022/11/29 11:18:45;;;;;;;23.53;19.40;;;;;;;10.44;83.46;98968.66;5073254;28;41933;-80
2022/11/29 11:21:15;;;;;;;19.20;15.60;;;;;;;10.57;83.13;98975.88;5073055;28;42189;-83
2022/11/29 11:23:52;;;;;;;18.40;16.43;;;;;;;10.59;82.80;98981.94;5056602;28;41031;-83
2022/11/29 11:26:22;;;;;;;20.03;16.57;;;;;;;10.65;82.84;98979.75;5072806;28;41702;-81
2022/11/29 11:28:54;;;;;;;22.00;18.63;;;;;;;10.71;82.01;98982.03;5073981;28;42701;-84
2022/11/29 11:31:29;;;;;;;22.67;19.33;;;;;;;10.38;81.32;98924.03;5056045;28;42467;-82
2022/11/29 11:33:57;;;;;;;28.70;20.60;;;;;;;10.68;79.84;98981.38;5103917;28;40247;-81
2022/11/29 11:36:27;;;;;;;22.77;18.73;;;;;;;10.66;79.38;98988.53;5073489;28;41963;-79
2022/11/29 11:38:57;;;;;;;22.77;18.97;;;;;;;10.59;79.33;98989.88;5073217;28;43506;-81
2022/11/29 11:44:24;;;;;;;23.73;17.83;;;;;;;10.68;78.99;98994.59;5074089;28;39447;-82
2022/11/29 11:46:52;;;;;;;22.27;17.83;;;;;;;10.69;79.37;98988.38;5089428;28;41953;-80
2022/11/29 11:49:28;;;;;;;22.23;17.93;;;;;;;10.77;79.75;98986.09;5072397;28;41668;-80
2022/11/29 11:51:57;;;;;;;20.63;18.20;;;;;;;10.79;79.74;98992.16;5055613;28;43287;-85
2022/11/29 11:54:26;;;;;;;21.37;18.77;;;;;;;10.86;79.65;99003.25;5055960;28;39750;-81
2022/11/29 11:56:56;;;;;;;20.30;18.10;;;;;;;10.88;79.05;98999.53;5105907;28;42510;-79
2022/11/29 11:59:26;;;;;;;24.87;19.43;;;;;;;10.86;78.45;99004.09;5055292;28;42707;-82
2022/11/29 12:01:53;;;;;;;26.53;20.17;;;;;;;10.72;77.74;98989.03;5072193;28;41284;-80
2022/11/29 12:04:24;;;;;;;23.77;19.60;;;;;;;10.76;77.56;99010.88;5055640;28;39392;-81
2022/11/29 12:06:58;;;;;;;21.67;18.50;;;;;;;10.59;78.23;98992.53;5072208;28;42688;-82
2022/11/29 12:09:32;;;;;;;21.97;18.23;;;;;;;10.66;78.16;99009.72;5055344;28;44619;-83
2022/11/29 12:12:11;;;;;;;24.67;18.73;;;;;;;10.63;78.27;99007.28;5055277;28;42733;-80
2022/11/29 12:14:47;;;;;;;22.30;18.17;;;;;;;10.53;78.84;98987.56;5069545;28;39779;-81
2022/11/29 12:17:22;;;;;;;19.00;16.27;;;;;;;10.33;78.88;98960.50;5105114;28;41607;-84
2022/11/29 12:20:03;;;;;;;20.80;18.03;;;;;;;10.43;78.67;98984.63;5089450;28;41836;-81
2022/11/29 12:22:37;;;;;;;19.67;16.93;;;;;;;10.55;78.67;99017.47;5071804;28;41153;-84
2022/11/29 12:25:10;;;;;;;21.53;17.93;;;;;;;10.38;78.90;99000.81;5069435;28;41057;-81
2022/11/29 12:27:41;;;;;;;21.43;17.77;;;;;;;10.43;78.88;99019.91;5071715;28;40747;-82
2022/11/29 12:30:13;;;;;;;24.33;18.23;;;;;;;10.38;78.53;99022.00;5071860;28;41731;-81
2022/11/29 12:32:57;;;;;;;22.10;18.00;;;;;;;10.19;78.58;98989.59;5054809;28;41101;-83
2022/11/29 12:35:45;;;;;;;21.53;19.10;;;;;;;10.37;78.51;99017.63;5055190;28;39028;-83
2022/11/29 12:38:28;;;;;;;24.17;18.33;;;;;;;10.30;78.12;99008.34;5054923;28;43382;-81
2022/11/29 12:41:09;;;;;;;22.57;19.10;;;;;;;10.35;78.10;99027.47;5071413;28;43178;-84
2022/11/29 12:43:51;;;;;;;23.40;18.60;;;;;;;10.35;77.60;99031.91;5071972;28;41400;-82
2022/11/29 12:46:24;;;;;;;21.83;17.57;;;;;;;10.27;77.68;99016.44;5054941;28;39915;-84
2022/11/29 12:49:00;;;;;;;22.00;17.50;;;;;;;10.28;76.93;99020.81;5070006;28;41769;-81
2022/11/29 12:51:40;;;;;;;23.00;17.73;;;;;;;10.33;76.06;99032.00;5054818;28;41849;-84
2022/11/29 12:54:23;;;;;;;22.00;18.63;;;;;;;10.19;75.96;99015.22;5071994;28;40927;-80
2022/11/29 12:57:00;;;;;;;21.43;17.97;;;;;;;10.17;75.46;99028.50;5071605;28;42436;-84
2022/11/29 12:59:45;;;;;;;20.77;17.30;;;;;;;10.18;76.52;99029.34;5054970;28;41196;-80
2022/11/29 13:02:25;;;;;;;20.83;17.97;;;;;;;10.14;76.77;99020.72;5071327;28;43970;-83
2022/11/29 13:05:01;;;;;;;22.93;17.93;;;;;;;10.20;76.67;99032.78;5071490;28;41251;-84
2022/11/29 13:07:40;;;;;;;20.43;17.47;;;;;;;10.15;77.12;99035.66;5071388;28;40426;-82
2022/11/29 13:10:23;;;;;;;26.13;19.00;;;;;;;10.02;77.19;99024.06;5054461;28;40620;-84
2022/11/29 13:12:53;;;;;;;22.80;18.17;;;;;;;10.06;77.16;99041.50;5070769;28;42791;-83
2022/11/29 13:15:27;;;;;;;23.67;17.90;;;;;;;10.06;77.59;99036.19;5054887;28;42586;-85
2022/11/29 13:18:01;;;;;;;21.67;17.53;;;;;;;10.04;78.00;99038.94;5072199;28;40019;-80
2022/11/29 13:20:37;;;;;;;24.03;18.20;;;;;;;9.98;77.66;99027.84;5071286;28;41947;-81
2022/11/29 13:23:16;;;;;;;21.37;17.97;;;;;;;9.98;77.53;99046.38;5067918;28;42836;-82
2022/11/29 13:25:53;;;;;;;20.73;17.53;;;;;;;9.94;77.83;99052.78;5054046;28;41448;-81
2022/11/29 13:28:25;;;;;;;26.03;19.53;;;;;;;9.86;77.26;99055.88;5054833;28;38911;-81
2022/11/29 13:30:59;;;;;;;21.67;18.07;;;;;;;9.73;77.93;99031.91;5054423;28;41804;-81
2022/11/29 13:33:32;;;;;;;21.50;18.10;;;;;;;9.79;78.14;99048.34;5068188;28;42774;-84
2022/11/29 13:36:10;;;;;;;25.53;21.00;;;;;;;9.65;77.98;99025.31;5087759;28;41318;-80
2022/11/29 13:38:43;;;;;;;24.50;19.60;;;;;;;9.73;78.21;99050.41;5054558;28;39224;-82
2022/11/29 13:41:21;;;;;;;30.17;21.30;;;;;;;9.73;78.28;99050.41;5069468;28;41941;-84
2022/11/29 13:43:55;;;;;;;24.63;19.13;;;;;;;9.74;78.52;99051.25;5071360;28;43162;-81
2022/11/29 13:46:32;;;;;;;28.77;21.40;;;;;;;9.70;78.30;99050.56;5070908;28;41278;-83
2022/11/29 13:49:00;;;;;;;29.97;22.70;;;;;;;9.58;78.81;99035.38;5054163;28;39148;-83
2022/11/29 13:51:32;;;;;;;26.40;20.53;;;;;;;9.56;78.65;99026.69;5070607;28;43422;-80
2022/11/29 13:54:03;;;;;;;24.83;19.87;;;;;;;9.56;78.99;99029.34;5070679;28;41941;-83
2022/11/29 13:56:45;;;;;;;23.67;19.57;;;;;;;9.75;78.96;99044.19;5053554;28;42014;-80
2022/11/29 13:59:18;;;;;;;26.83;21.03;;;;;;;9.75;78.92;99046.81;5070853;28;38484;-81
2022/11/29 14:01:50;;;;;;;23.20;18.93;;;;;;;9.62;79.19;99036.94;5056571;28;40759;-80
2022/11/29 14:04:26;;;;;;;25.93;21.03;;;;;;;9.63;79.19;99029.84;5072807;28;43684;-83
2022/11/29 14:07:18;;;;;;;29.63;21.60;;;;;;;9.72;79.38;99051.34;5076070;28;43334;-79
2022/11/29 14:09:56;;;;;;;27.97;21.53;;;;;;;9.62;79.09;99036.94;5066571;28;39897;-81
2022/11/29 14:12:38;;;;;;;25.87;20.83;;;;;;;9.47;79.04;99029.84;5059280;28;42202;-84
2022/11/29 14:15:19;;;;;;;26.33;20.57;;;;;;;9.65;79.38;99060.53;5054822;28;43889;-80
2022/11/29 14:17:51;;;;;;;27.57;19.73;;;;;;;9.61;79.02;99061.66;5070678;28;42166;-84
2022/11/29 14:20:54;;;;;;;25.93;20.07;;;;;;;9.59;79.15;99057.41;5067787;28;40258;-84
2022/11/29 14:23:37;;;;;;;26.87;20.73;;;;;;;9.54;79.54;99062.94;5023222;28;42053;-83
2022/11/29 14:26:27;;;;;;;27.50;21.33;;;;;;;9.51;79.50;99057.84;5073001;28;41819;-82
2022/11/29 14:28:59;;;;;;;25.97;19.80;;;;;;;9.40;79.20;99044.31;5070906;28;42262;-80
2022/11/29 14:31:53;;;;;;;25.30;18.83;;;;;;;9.48;79.85;99059.78;5057093;28;38748;-83
2022/11/29 14:34:46;;;;;;;26.43;19.73;;;;;;;9.46;80.03;99059.88;5057138;28;41978;-81
2022/11/29 14:37:38;;;;;;;27.50;19.30;;;;;;;9.42;80.04;99065.38;5073500;28;41711;-84
2022/11/29 14:40:26;;;;;;;24.57;19.37;;;;;;;9.29;80.30;99044.06;5073546;28;41435;-82
2022/11/29 14:42:54;;;;;;;23.00;18.30;;;;;;;9.06;80.08;99015.38;5090576;28;38929;-82
2022/11/29 14:45:25;;;;;;;28.23;20.60;;;;;;;9.39;80.23;99071.72;5056938;28;41870;-82
2022/11/29 14:47:54;;;;;;;24.83;19.23;;;;;;;9.24;80.16;99062.81;5073378;28;41740;-80
2022/11/29 14:50:33;;;;;;;25.07;19.30;;;;;;;9.30;80.53;99073.03;5073844;28;42110;-85
2022/11/29 14:53:01;;;;;;;28.80;21.00;;;;;;;9.25;80.21;99074.25;5056798;28;38702;-80
2022/11/29 14:55:34;;;;;;;30.70;20.60;;;;;;;9.23;80.38;99081.41;5057071;28;40722;-80
2022/11/29 14:58:21;;;;;;;27.20;19.50;;;;;;;9.22;80.60;99079.69;5073634;28;41893;-81
